sensor_id;sensor_type;location;lat;lon;timestamp;P1;durP1;ratioP1;P2;durP2;ratioP2
8861;SDS011;4799;50.996;4.754;2022-12-31T00:01:29;1.87;;;1.20;;
8861;SDS011;4799;50.996;4.754;2022-12-31T00:03:55;1.37;;;1.27;;
8861;SDS011;4799;50.996;4.754;2022-12-31T00:06:22;1.97;;;1.30;;
8861;SDS011;4799;50.996;4.754;2022-12-31T00:08:51;1.50;;;1.40;;
8861;SDS011;4799;50.996;4.754;2022-12-31T00:11:20;1.40;;;1.30;;
8861;SDS011;4799;50.996;4.754;2022-12-31T00:13:47;1.40;;;1.30;;
8861;SDS011;4799;50.996;4.754;2022-12-31T00:16:16;1.40;;;1.30;;
8861;SDS011;4799;50.996;4.754;2022-12-31T00:18:44;1.67;;;1.30;;
8861;SDS011;4799;50.996;4.754;2022-12-31T00:21:11;1.50;;;1.17;;
8861;SDS011;4799;50.996;4.754;2022-12-31T00:23:37;1.30;;;1.20;;
8861;SDS011;4799;50.996;4.754;2022-12-31T00:26:04;1.20;;;1.10;;
8861;SDS011;4799;50.996;4.754;2022-12-31T00:28:31;2.70;;;1.20;;
8861;SDS011;4799;50.996;4.754;2022-12-31T00:31:08;1.63;;;1.10;;
8861;SDS011;4799;50.996;4.754;2022-12-31T00:33:43;1.10;;;0.90;;
8861;SDS011;4799;50.996;4.754;2022-12-31T00:36:16;1.53;;;1.20;;
8861;SDS011;4799;50.996;4.754;2022-12-31T00:38:48;0.80;;;0.80;;
8861;SDS011;4799;50.996;4.754;2022-12-31T00:41:15;1.20;;;0.90;;
8861;SDS011;4799;50.996;4.754;2022-12-31T00:43:42;2.50;;;1.07;;
8861;SDS011;4799;50.996;4.754;2022-12-31T00:46:08;0.83;;;0.83;;
8861;SDS011;4799;50.996;4.754;2022-12-31T00:48:35;1.50;;;0.93;;
8861;SDS011;4799;50.996;4.754;2022-12-31T00:51:01;1.03;;;0.90;;
8861;SDS011;4799;50.996;4.754;2022-12-31T00:53:28;1.97;;;0.70;;
8861;SDS011;4799;50.996;4.754;2022-12-31T00:56:04;0.87;;;0.73;;
8861;SDS011;4799;50.996;4.754;2022-12-31T00:58:33;2.70;;;0.70;;
8861;SDS011;4799;50.996;4.754;2022-12-31T01:01:21;0.50;;;0.50;;
8861;SDS011;4799;50.996;4.754;2022-12-31T01:03:48;1.97;;;0.70;;
8861;SDS011;4799;50.996;4.754;2022-12-31T01:06:15;0.60;;;0.60;;
8861;SDS011;4799;50.996;4.754;2022-12-31T01:08:41;0.60;;;0.60;;
8861;SDS011;4799;50.996;4.754;2022-12-31T01:11:06;0.80;;;0.60;;
8861;SDS011;4799;50.996;4.754;2022-12-31T01:13:51;0.90;;;0.63;;
8861;SDS011;4799;50.996;4.754;2022-12-31T01:16:47;0.80;;;0.53;;
8861;SDS011;4799;50.996;4.754;2022-12-31T01:19:22;0.77;;;0.60;;
8861;SDS011;4799;50.996;4.754;2022-12-31T01:21:49;0.50;;;0.50;;
8861;SDS011;4799;50.996;4.754;2022-12-31T01:24:16;0.60;;;0.50;;
8861;SDS011;4799;50.996;4.754;2022-12-31T01:26:42;0.50;;;0.47;;
8861;SDS011;4799;50.996;4.754;2022-12-31T01:29:09;1.20;;;0.50;;
8861;SDS011;4799;50.996;4.754;2022-12-31T01:31:35;0.80;;;0.50;;
8861;SDS011;4799;50.996;4.754;2022-12-31T01:34:02;0.50;;;0.50;;
8861;SDS011;4799;50.996;4.754;2022-12-31T01:36:29;0.90;;;0.70;;
8861;SDS011;4799;50.996;4.754;2022-12-31T01:38:57;8.53;;;0.87;;
8861;SDS011;4799;50.996;4.754;2022-12-31T01:41:30;2.10;;;0.77;;
8861;SDS011;4799;50.996;4.754;2022-12-31T01:43:59;2.90;;;0.70;;
8861;SDS011;4799;50.996;4.754;2022-12-31T01:46:39;2.13;;;0.50;;
8861;SDS011;4799;50.996;4.754;2022-12-31T01:49:08;1.80;;;0.43;;
8861;SDS011;4799;50.996;4.754;2022-12-31T01:51:40;0.50;;;0.40;;
8861;SDS011;4799;50.996;4.754;2022-12-31T01:54:15;0.60;;;0.50;;
8861;SDS011;4799;50.996;4.754;2022-12-31T01:56:45;0.67;;;0.50;;
8861;SDS011;4799;50.996;4.754;2022-12-31T01:59:14;0.90;;;0.60;;
8861;SDS011;4799;50.996;4.754;2022-12-31T02:01:41;0.40;;;0.40;;
8861;SDS011;4799;50.996;4.754;2022-12-31T02:04:10;0.40;;;0.40;;
8861;SDS011;4799;50.996;4.754;2022-12-31T02:06:39;0.50;;;0.50;;
8861;SDS011;4799;50.996;4.754;2022-12-31T02:09:08;0.57;;;0.43;;
8861;SDS011;4799;50.996;4.754;2022-12-31T02:11:36;1.33;;;0.50;;
8861;SDS011;4799;50.996;4.754;2022-12-31T02:14:03;0.70;;;0.50;;
8861;SDS011;4799;50.996;4.754;2022-12-31T02:30:11;1.97;;;0.70;;
8861;SDS011;4799;50.996;4.754;2022-12-31T02:36:08;1.13;;;0.80;;
8861;SDS011;4799;50.996;4.754;2022-12-31T02:38:39;1.67;;;1.00;;
8861;SDS011;4799;50.996;4.754;2022-12-31T02:41:04;2.37;;;0.93;;
8861;SDS011;4799;50.996;4.754;2022-12-31T02:43:30;2.10;;;0.93;;
8861;SDS011;4799;50.996;4.754;2022-12-31T02:48:36;2.60;;;1.13;;
8861;SDS011;4799;50.996;4.754;2022-12-31T02:59:25;1.50;;;1.00;;
8861;SDS011;4799;50.996;4.754;2022-12-31T03:02:29;2.17;;;1.10;;
8861;SDS011;4799;50.996;4.754;2022-12-31T03:04:59;3.10;;;1.20;;
8861;SDS011;4799;50.996;4.754;2022-12-31T03:07:27;2.93;;;1.23;;
8861;SDS011;4799;50.996;4.754;2022-12-31T03:09:55;2.63;;;1.00;;
8861;SDS011;4799;50.996;4.754;2022-12-31T03:12:26;2.83;;;1.20;;
8861;SDS011;4799;50.996;4.754;2022-12-31T03:15:27;3.67;;;1.40;;
8861;SDS011;4799;50.996;4.754;2022-12-31T03:17:59;3.13;;;1.30;;
8861;SDS011;4799;50.996;4.754;2022-12-31T03:20:41;4.60;;;1.40;;
8861;SDS011;4799;50.996;4.754;2022-12-31T03:25:51;3.83;;;1.60;;
8861;SDS011;4799;50.996;4.754;2022-12-31T03:28:18;3.60;;;1.43;;
8861;SDS011;4799;50.996;4.754;2022-12-31T03:30:46;2.73;;;1.30;;
8861;SDS011;4799;50.996;4.754;2022-12-31T03:33:15;2.13;;;1.10;;
8861;SDS011;4799;50.996;4.754;2022-12-31T03:35:42;3.03;;;1.20;;
8861;SDS011;4799;50.996;4.754;2022-12-31T03:38:09;6.37;;;1.57;;
8861;SDS011;4799;50.996;4.754;2022-12-31T03:40:39;3.67;;;1.10;;
8861;SDS011;4799;50.996;4.754;2022-12-31T03:43:07;4.63;;;1.10;;
8861;SDS011;4799;50.996;4.754;2022-12-31T03:45:33;1.97;;;1.00;;
8861;SDS011;4799;50.996;4.754;2022-12-31T03:47:59;3.00;;;1.30;;
8861;SDS011;4799;50.996;4.754;2022-12-31T03:50:26;2.47;;;1.13;;
8861;SDS011;4799;50.996;4.754;2022-12-31T03:52:52;1.57;;;0.90;;
8861;SDS011;4799;50.996;4.754;2022-12-31T03:55:18;2.93;;;1.10;;
8861;SDS011;4799;50.996;4.754;2022-12-31T03:57:44;3.53;;;0.90;;
8861;SDS011;4799;50.996;4.754;2022-12-31T04:00:11;2.43;;;1.00;;
8861;SDS011;4799;50.996;4.754;2022-12-31T04:02:39;2.40;;;1.10;;
8861;SDS011;4799;50.996;4.754;2022-12-31T04:05:06;3.07;;;1.13;;
8861;SDS011;4799;50.996;4.754;2022-12-31T04:07:32;1.30;;;0.90;;
8861;SDS011;4799;50.996;4.754;2022-12-31T04:09:58;2.63;;;0.90;;
8861;SDS011;4799;50.996;4.754;2022-12-31T04:12:23;3.40;;;1.20;;
8861;SDS011;4799;50.996;4.754;2022-12-31T04:14:49;3.57;;;1.00;;
8861;SDS011;4799;50.996;4.754;2022-12-31T04:17:15;2.43;;;1.10;;
8861;SDS011;4799;50.996;4.754;2022-12-31T04:19:41;3.30;;;1.10;;
8861;SDS011;4799;50.996;4.754;2022-12-31T04:22:06;2.50;;;1.03;;
8861;SDS011;4799;50.996;4.754;2022-12-31T04:24:32;3.03;;;1.00;;
8861;SDS011;4799;50.996;4.754;2022-12-31T04:26:58;2.57;;;0.80;;
8861;SDS011;4799;50.996;4.754;2022-12-31T04:29:24;3.23;;;1.10;;
8861;SDS011;4799;50.996;4.754;2022-12-31T04:31:50;1.50;;;0.80;;
8861;SDS011;4799;50.996;4.754;2022-12-31T04:34:15;2.20;;;0.90;;
8861;SDS011;4799;50.996;4.754;2022-12-31T04:36:41;1.20;;;0.80;;
8861;SDS011;4799;50.996;4.754;2022-12-31T04:39:07;3.60;;;0.90;;
8861;SDS011;4799;50.996;4.754;2022-12-31T04:41:32;2.03;;;0.80;;
8861;SDS011;4799;50.996;4.754;2022-12-31T04:43:58;2.27;;;0.90;;
8861;SDS011;4799;50.996;4.754;2022-12-31T04:46:26;2.23;;;0.90;;
8861;SDS011;4799;50.996;4.754;2022-12-31T04:48:53;4.13;;;0.90;;
8861;SDS011;4799;50.996;4.754;2022-12-31T04:51:19;2.13;;;0.70;;
8861;SDS011;4799;50.996;4.754;2022-12-31T04:53:46;3.03;;;0.93;;
8861;SDS011;4799;50.996;4.754;2022-12-31T04:56:12;2.87;;;0.90;;
8861;SDS011;4799;50.996;4.754;2022-12-31T04:58:39;3.00;;;0.80;;
8861;SDS011;4799;50.996;4.754;2022-12-31T05:01:05;2.67;;;0.80;;
8861;SDS011;4799;50.996;4.754;2022-12-31T05:03:31;3.20;;;1.00;;
8861;SDS011;4799;50.996;4.754;2022-12-31T05:06:02;2.60;;;0.87;;
8861;SDS011;4799;50.996;4.754;2022-12-31T05:08:32;2.07;;;0.87;;
8861;SDS011;4799;50.996;4.754;2022-12-31T05:10:58;2.10;;;0.93;;
8861;SDS011;4799;50.996;4.754;2022-12-31T05:13:24;1.93;;;1.03;;
8861;SDS011;4799;50.996;4.754;2022-12-31T05:15:51;2.33;;;0.80;;
8861;SDS011;4799;50.996;4.754;2022-12-31T05:18:17;3.47;;;1.00;;
8861;SDS011;4799;50.996;4.754;2022-12-31T05:20:43;1.80;;;0.80;;
8861;SDS011;4799;50.996;4.754;2022-12-31T05:23:09;2.27;;;0.87;;
8861;SDS011;4799;50.996;4.754;2022-12-31T05:25:35;1.73;;;0.90;;
8861;SDS011;4799;50.996;4.754;2022-12-31T05:28:01;3.03;;;1.00;;
8861;SDS011;4799;50.996;4.754;2022-12-31T05:30:27;1.73;;;0.90;;
8861;SDS011;4799;50.996;4.754;2022-12-31T05:32:53;3.17;;;1.10;;
8861;SDS011;4799;50.996;4.754;2022-12-31T05:35:18;2.83;;;0.93;;
8861;SDS011;4799;50.996;4.754;2022-12-31T05:37:44;3.20;;;0.90;;
8861;SDS011;4799;50.996;4.754;2022-12-31T05:40:10;2.10;;;0.80;;
8861;SDS011;4799;50.996;4.754;2022-12-31T05:42:37;1.70;;;0.80;;
8861;SDS011;4799;50.996;4.754;2022-12-31T05:45:03;2.97;;;0.80;;
8861;SDS011;4799;50.996;4.754;2022-12-31T05:47:29;2.60;;;0.80;;
8861;SDS011;4799;50.996;4.754;2022-12-31T05:49:55;2.93;;;0.93;;
8861;SDS011;4799;50.996;4.754;2022-12-31T05:52:21;1.47;;;0.83;;
8861;SDS011;4799;50.996;4.754;2022-12-31T05:54:46;2.40;;;0.90;;
8861;SDS011;4799;50.996;4.754;2022-12-31T05:57:12;2.63;;;1.00;;
8861;SDS011;4799;50.996;4.754;2022-12-31T05:59:38;3.23;;;1.17;;
8861;SDS011;4799;50.996;4.754;2022-12-31T06:02:03;2.70;;;1.00;;
8861;SDS011;4799;50.996;4.754;2022-12-31T06:04:29;2.63;;;0.90;;
8861;SDS011;4799;50.996;4.754;2022-12-31T06:06:55;3.20;;;0.83;;
8861;SDS011;4799;50.996;4.754;2022-12-31T06:09:21;2.10;;;1.00;;
8861;SDS011;4799;50.996;4.754;2022-12-31T06:11:47;3.57;;;1.17;;
8861;SDS011;4799;50.996;4.754;2022-12-31T06:14:13;3.50;;;0.93;;
8861;SDS011;4799;50.996;4.754;2022-12-31T06:16:39;3.17;;;1.00;;
8861;SDS011;4799;50.996;4.754;2022-12-31T06:19:06;3.37;;;1.17;;
8861;SDS011;4799;50.996;4.754;2022-12-31T06:21:31;2.63;;;1.00;;
8861;SDS011;4799;50.996;4.754;2022-12-31T06:23:57;2.53;;;1.00;;
8861;SDS011;4799;50.996;4.754;2022-12-31T06:26:24;4.03;;;1.00;;
8861;SDS011;4799;50.996;4.754;2022-12-31T06:28:50;2.97;;;1.20;;
8861;SDS011;4799;50.996;4.754;2022-12-31T06:31:16;3.23;;;1.10;;
8861;SDS011;4799;50.996;4.754;2022-12-31T06:33:42;2.60;;;1.07;;
8861;SDS011;4799;50.996;4.754;2022-12-31T06:36:10;3.33;;;1.20;;
8861;SDS011;4799;50.996;4.754;2022-12-31T06:38:38;2.17;;;1.00;;
8861;SDS011;4799;50.996;4.754;2022-12-31T06:41:05;2.57;;;0.90;;
8861;SDS011;4799;50.996;4.754;2022-12-31T06:43:33;3.27;;;1.00;;
8861;SDS011;4799;50.996;4.754;2022-12-31T06:46:03;3.73;;;1.10;;
8861;SDS011;4799;50.996;4.754;2022-12-31T06:48:29;3.77;;;1.10;;
8861;SDS011;4799;50.996;4.754;2022-12-31T06:50:55;4.00;;;1.40;;
8861;SDS011;4799;50.996;4.754;2022-12-31T06:53:21;2.43;;;0.97;;
8861;SDS011;4799;50.996;4.754;2022-12-31T06:55:48;2.53;;;1.40;;
8861;SDS011;4799;50.996;4.754;2022-12-31T06:58:14;3.77;;;0.90;;
8861;SDS011;4799;50.996;4.754;2022-12-31T07:00:54;4.20;;;1.30;;
8861;SDS011;4799;50.996;4.754;2022-12-31T07:03:51;3.07;;;1.27;;
8861;SDS011;4799;50.996;4.754;2022-12-31T07:15:11;4.13;;;1.20;;
8861;SDS011;4799;50.996;4.754;2022-12-31T07:20:16;2.80;;;1.20;;
8861;SDS011;4799;50.996;4.754;2022-12-31T07:22:43;2.70;;;1.10;;
8861;SDS011;4799;50.996;4.754;2022-12-31T07:25:16;3.90;;;1.10;;
8861;SDS011;4799;50.996;4.754;2022-12-31T07:47:37;2.80;;;1.00;;
8861;SDS011;4799;50.996;4.754;2022-12-31T07:50:03;4.73;;;1.30;;
8861;SDS011;4799;50.996;4.754;2022-12-31T07:52:30;3.87;;;1.43;;
8861;SDS011;4799;50.996;4.754;2022-12-31T07:54:55;3.47;;;1.03;;
8861;SDS011;4799;50.996;4.754;2022-12-31T07:57:21;2.90;;;1.17;;
8861;SDS011;4799;50.996;4.754;2022-12-31T08:08:21;2.63;;;1.00;;
8861;SDS011;4799;50.996;4.754;2022-12-31T08:14:07;3.50;;;1.30;;
8861;SDS011;4799;50.996;4.754;2022-12-31T08:16:38;3.17;;;1.20;;
8861;SDS011;4799;50.996;4.754;2022-12-31T08:19:05;3.30;;;1.10;;
8861;SDS011;4799;50.996;4.754;2022-12-31T08:24:21;4.97;;;1.63;;
8861;SDS011;4799;50.996;4.754;2022-12-31T08:29:39;3.00;;;1.37;;
8861;SDS011;4799;50.996;4.754;2022-12-31T08:37:42;4.10;;;1.20;;
8861;SDS011;4799;50.996;4.754;2022-12-31T08:40:31;2.50;;;1.10;;
8861;SDS011;4799;50.996;4.754;2022-12-31T08:46:18;3.43;;;1.10;;
8861;SDS011;4799;50.996;4.754;2022-12-31T08:48:49;2.83;;;1.27;;
8861;SDS011;4799;50.996;4.754;2022-12-31T08:51:19;4.43;;;1.30;;
8861;SDS011;4799;50.996;4.754;2022-12-31T08:53:47;3.43;;;1.27;;
8861;SDS011;4799;50.996;4.754;2022-12-31T08:56:21;3.27;;;1.40;;
8861;SDS011;4799;50.996;4.754;2022-12-31T09:01:38;3.03;;;1.30;;
8861;SDS011;4799;50.996;4.754;2022-12-31T09:07:35;2.83;;;1.33;;
8861;SDS011;4799;50.996;4.754;2022-12-31T09:18:41;3.67;;;1.47;;
8861;SDS011;4799;50.996;4.754;2022-12-31T09:21:07;4.83;;;1.60;;
8861;SDS011;4799;50.996;4.754;2022-12-31T09:23:35;2.33;;;1.23;;
8861;SDS011;4799;50.996;4.754;2022-12-31T09:31:43;4.47;;;1.53;;
8861;SDS011;4799;50.996;4.754;2022-12-31T09:34:33;3.30;;;1.40;;
8861;SDS011;4799;50.996;4.754;2022-12-31T09:37:05;4.97;;;1.80;;
8861;SDS011;4799;50.996;4.754;2022-12-31T09:39:46;3.90;;;1.50;;
8861;SDS011;4799;50.996;4.754;2022-12-31T09:48:39;4.67;;;1.70;;
8861;SDS011;4799;50.996;4.754;2022-12-31T09:51:27;5.27;;;1.60;;
8861;SDS011;4799;50.996;4.754;2022-12-31T10:00:04;5.43;;;1.73;;
8861;SDS011;4799;50.996;4.754;2022-12-31T10:05:47;3.77;;;1.70;;
8861;SDS011;4799;50.996;4.754;2022-12-31T10:08:28;4.73;;;1.77;;
8861;SDS011;4799;50.996;4.754;2022-12-31T10:11:04;5.40;;;1.70;;
8861;SDS011;4799;50.996;4.754;2022-12-31T10:16:54;5.20;;;1.70;;
8861;SDS011;4799;50.996;4.754;2022-12-31T10:22:44;3.33;;;1.50;;
8861;SDS011;4799;50.996;4.754;2022-12-31T10:25:35;4.70;;;1.60;;
8861;SDS011;4799;50.996;4.754;2022-12-31T10:28:30;6.40;;;1.73;;
8861;SDS011;4799;50.996;4.754;2022-12-31T10:31:56;6.30;;;2.00;;
8861;SDS011;4799;50.996;4.754;2022-12-31T10:34:22;4.77;;;1.70;;
8861;SDS011;4799;50.996;4.754;2022-12-31T10:37:15;3.67;;;1.40;;
8861;SDS011;4799;50.996;4.754;2022-12-31T10:45:50;6.00;;;1.83;;
8861;SDS011;4799;50.996;4.754;2022-12-31T10:53:58;5.93;;;1.57;;
8861;SDS011;4799;50.996;4.754;2022-12-31T11:16:22;6.17;;;1.63;;
8861;SDS011;4799;50.996;4.754;2022-12-31T11:18:59;4.70;;;1.70;;
8861;SDS011;4799;50.996;4.754;2022-12-31T11:35:54;3.20;;;1.70;;
8861;SDS011;4799;50.996;4.754;2022-12-31T11:38:25;6.30;;;1.90;;
8861;SDS011;4799;50.996;4.754;2022-12-31T11:40:59;6.70;;;1.80;;
8861;SDS011;4799;50.996;4.754;2022-12-31T11:43:59;6.53;;;1.90;;
8861;SDS011;4799;50.996;4.754;2022-12-31T11:58:07;5.63;;;2.03;;
8861;SDS011;4799;50.996;4.754;2022-12-31T12:01:04;5.37;;;2.10;;
8861;SDS011;4799;50.996;4.754;2022-12-31T12:03:35;4.93;;;2.00;;
8861;SDS011;4799;50.996;4.754;2022-12-31T12:06:10;5.43;;;2.00;;
8861;SDS011;4799;50.996;4.754;2022-12-31T12:08:38;4.90;;;1.97;;
8861;SDS011;4799;50.996;4.754;2022-12-31T12:11:05;5.60;;;2.17;;
8861;SDS011;4799;50.996;4.754;2022-12-31T12:13:37;3.53;;;1.77;;
8861;SDS011;4799;50.996;4.754;2022-12-31T12:16:05;5.87;;;1.90;;
8861;SDS011;4799;50.996;4.754;2022-12-31T12:18:33;4.33;;;1.90;;
8861;SDS011;4799;50.996;4.754;2022-12-31T12:21:20;4.73;;;1.77;;
8861;SDS011;4799;50.996;4.754;2022-12-31T12:24:01;2.97;;;1.33;;
8861;SDS011;4799;50.996;4.754;2022-12-31T12:28:59;3.77;;;1.70;;
8861;SDS011;4799;50.996;4.754;2022-12-31T12:31:33;4.10;;;1.70;;
8861;SDS011;4799;50.996;4.754;2022-12-31T12:34:00;5.47;;;1.90;;
8861;SDS011;4799;50.996;4.754;2022-12-31T12:36:25;5.60;;;1.87;;
8861;SDS011;4799;50.996;4.754;2022-12-31T12:39:02;5.57;;;2.03;;
8861;SDS011;4799;50.996;4.754;2022-12-31T12:41:30;4.20;;;1.70;;
8861;SDS011;4799;50.996;4.754;2022-12-31T12:44:06;5.47;;;2.10;;
8861;SDS011;4799;50.996;4.754;2022-12-31T12:46:42;4.23;;;1.90;;
8861;SDS011;4799;50.996;4.754;2022-12-31T12:58:17;5.80;;;2.10;;
8861;SDS011;4799;50.996;4.754;2022-12-31T13:23:19;7.27;;;2.40;;
8861;SDS011;4799;50.996;4.754;2022-12-31T13:28:42;7.50;;;2.50;;
8861;SDS011;4799;50.996;4.754;2022-12-31T13:31:12;6.50;;;2.40;;
8861;SDS011;4799;50.996;4.754;2022-12-31T13:33:44;5.90;;;2.30;;
8861;SDS011;4799;50.996;4.754;2022-12-31T13:36:21;6.47;;;2.40;;
8861;SDS011;4799;50.996;4.754;2022-12-31T13:38:52;7.90;;;2.70;;
8861;SDS011;4799;50.996;4.754;2022-12-31T13:41:31;6.07;;;2.23;;
8861;SDS011;4799;50.996;4.754;2022-12-31T13:44:03;6.90;;;2.77;;
8861;SDS011;4799;50.996;4.754;2022-12-31T13:46:37;6.47;;;2.60;;
8861;SDS011;4799;50.996;4.754;2022-12-31T13:49:30;4.90;;;2.53;;
8861;SDS011;4799;50.996;4.754;2022-12-31T13:52:11;5.73;;;2.40;;
8861;SDS011;4799;50.996;4.754;2022-12-31T13:55:09;7.07;;;2.30;;
8861;SDS011;4799;50.996;4.754;2022-12-31T14:00:22;8.13;;;2.90;;
8861;SDS011;4799;50.996;4.754;2022-12-31T14:05:42;5.83;;;2.10;;
8861;SDS011;4799;50.996;4.754;2022-12-31T14:08:15;5.33;;;2.13;;
8861;SDS011;4799;50.996;4.754;2022-12-31T14:24:45;4.20;;;2.10;;
8861;SDS011;4799;50.996;4.754;2022-12-31T14:27:21;5.33;;;2.10;;
8861;SDS011;4799;50.996;4.754;2022-12-31T14:30:12;5.00;;;2.30;;
8861;SDS011;4799;50.996;4.754;2022-12-31T14:32:59;4.77;;;2.20;;
8861;SDS011;4799;50.996;4.754;2022-12-31T14:35:51;5.80;;;2.40;;
8861;SDS011;4799;50.996;4.754;2022-12-31T14:51:41;4.53;;;2.20;;
8861;SDS011;4799;50.996;4.754;2022-12-31T14:54:26;3.63;;;1.87;;
8861;SDS011;4799;50.996;4.754;2022-12-31T14:57:07;5.43;;;1.97;;
8861;SDS011;4799;50.996;4.754;2022-12-31T15:02:55;3.57;;;2.03;;
8861;SDS011;4799;50.996;4.754;2022-12-31T15:05:25;4.00;;;2.17;;
8861;SDS011;4799;50.996;4.754;2022-12-31T15:07:57;4.93;;;2.20;;
8861;SDS011;4799;50.996;4.754;2022-12-31T15:16:35;4.03;;;2.00;;
8861;SDS011;4799;50.996;4.754;2022-12-31T15:25:20;6.67;;;2.23;;
8861;SDS011;4799;50.996;4.754;2022-12-31T15:28:02;3.73;;;1.90;;
8861;SDS011;4799;50.996;4.754;2022-12-31T15:33:00;3.83;;;2.00;;
8861;SDS011;4799;50.996;4.754;2022-12-31T15:35:29;4.23;;;2.17;;
8861;SDS011;4799;50.996;4.754;2022-12-31T15:40:45;6.83;;;2.40;;
8861;SDS011;4799;50.996;4.754;2022-12-31T15:43:16;4.77;;;2.00;;
8861;SDS011;4799;50.996;4.754;2022-12-31T15:45:52;5.67;;;1.90;;
8861;SDS011;4799;50.996;4.754;2022-12-31T15:48:54;5.50;;;2.50;;
8861;SDS011;4799;50.996;4.754;2022-12-31T15:51:41;5.00;;;2.37;;
8861;SDS011;4799;50.996;4.754;2022-12-31T15:54:12;6.17;;;2.23;;
8861;SDS011;4799;50.996;4.754;2022-12-31T15:56:48;3.23;;;2.27;;
8861;SDS011;4799;50.996;4.754;2022-12-31T15:59:16;4.17;;;2.10;;
8861;SDS011;4799;50.996;4.754;2022-12-31T16:01:43;4.53;;;2.43;;
8861;SDS011;4799;50.996;4.754;2022-12-31T16:04:15;4.27;;;2.10;;
8861;SDS011;4799;50.996;4.754;2022-12-31T16:06:52;4.13;;;2.20;;
8861;SDS011;4799;50.996;4.754;2022-12-31T16:09:20;5.20;;;2.07;;
8861;SDS011;4799;50.996;4.754;2022-12-31T16:11:48;5.23;;;2.10;;
8861;SDS011;4799;50.996;4.754;2022-12-31T16:14:18;6.67;;;2.27;;
8861;SDS011;4799;50.996;4.754;2022-12-31T16:17:05;6.50;;;2.33;;
8861;SDS011;4799;50.996;4.754;2022-12-31T16:19:32;7.30;;;2.23;;
8861;SDS011;4799;50.996;4.754;2022-12-31T16:22:06;5.70;;;2.33;;
8861;SDS011;4799;50.996;4.754;2022-12-31T16:24:37;6.10;;;2.17;;
8861;SDS011;4799;50.996;4.754;2022-12-31T16:27:06;5.93;;;2.17;;
8861;SDS011;4799;50.996;4.754;2022-12-31T16:29:36;4.77;;;2.17;;
8861;SDS011;4799;50.996;4.754;2022-12-31T16:32:13;6.23;;;2.10;;
8861;SDS011;4799;50.996;4.754;2022-12-31T16:34:41;5.50;;;1.97;;
8861;SDS011;4799;50.996;4.754;2022-12-31T16:37:17;6.03;;;2.53;;
8861;SDS011;4799;50.996;4.754;2022-12-31T16:40:06;6.60;;;2.20;;
8861;SDS011;4799;50.996;4.754;2022-12-31T16:42:39;4.60;;;2.30;;
8861;SDS011;4799;50.996;4.754;2022-12-31T16:45:16;3.77;;;1.90;;
8861;SDS011;4799;50.996;4.754;2022-12-31T16:47:44;6.43;;;2.17;;
8861;SDS011;4799;50.996;4.754;2022-12-31T16:50:13;6.93;;;3.00;;
8861;SDS011;4799;50.996;4.754;2022-12-31T16:52:46;6.10;;;2.20;;
8861;SDS011;4799;50.996;4.754;2022-12-31T16:55:15;5.37;;;2.27;;
8861;SDS011;4799;50.996;4.754;2022-12-31T16:57:49;4.53;;;2.10;;
8861;SDS011;4799;50.996;4.754;2022-12-31T17:00:18;5.80;;;2.20;;
8861;SDS011;4799;50.996;4.754;2022-12-31T17:05:28;4.00;;;2.33;;
8861;SDS011;4799;50.996;4.754;2022-12-31T17:07:54;6.13;;;2.30;;
8861;SDS011;4799;50.996;4.754;2022-12-31T17:10:24;5.80;;;2.30;;
8861;SDS011;4799;50.996;4.754;2022-12-31T17:12:59;4.23;;;2.10;;
8861;SDS011;4799;50.996;4.754;2022-12-31T17:15:28;7.53;;;2.60;;
8861;SDS011;4799;50.996;4.754;2022-12-31T17:18:07;5.27;;;2.30;;
8861;SDS011;4799;50.996;4.754;2022-12-31T17:20:45;5.43;;;2.07;;
8861;SDS011;4799;50.996;4.754;2022-12-31T17:26:06;5.43;;;2.13;;
8861;SDS011;4799;50.996;4.754;2022-12-31T17:28:42;6.60;;;2.10;;
8861;SDS011;4799;50.996;4.754;2022-12-31T17:34:22;4.83;;;2.00;;
8861;SDS011;4799;50.996;4.754;2022-12-31T17:37:09;6.30;;;2.20;;
8861;SDS011;4799;50.996;4.754;2022-12-31T17:39:52;6.10;;;2.73;;
8861;SDS011;4799;50.996;4.754;2022-12-31T17:45:05;5.80;;;2.50;;
8861;SDS011;4799;50.996;4.754;2022-12-31T17:47:52;8.30;;;2.70;;
8861;SDS011;4799;50.996;4.754;2022-12-31T17:52:46;7.73;;;2.40;;
8861;SDS011;4799;50.996;4.754;2022-12-31T17:55:12;4.13;;;2.20;;
8861;SDS011;4799;50.996;4.754;2022-12-31T17:57:47;4.80;;;2.67;;
8861;SDS011;4799;50.996;4.754;2022-12-31T18:00:17;4.90;;;2.30;;
8861;SDS011;4799;50.996;4.754;2022-12-31T18:02:44;6.37;;;2.33;;
8861;SDS011;4799;50.996;4.754;2022-12-31T18:05:14;5.87;;;2.23;;
8861;SDS011;4799;50.996;4.754;2022-12-31T18:07:41;7.53;;;2.60;;
8861;SDS011;4799;50.996;4.754;2022-12-31T18:10:08;7.43;;;2.13;;
8861;SDS011;4799;50.996;4.754;2022-12-31T18:12:34;6.53;;;2.50;;
8861;SDS011;4799;50.996;4.754;2022-12-31T18:15:00;3.87;;;1.97;;
8861;SDS011;4799;50.996;4.754;2022-12-31T18:17:26;5.97;;;2.23;;
8861;SDS011;4799;50.996;4.754;2022-12-31T18:19:53;8.30;;;2.40;;
8861;SDS011;4799;50.996;4.754;2022-12-31T18:22:19;5.17;;;2.50;;
8861;SDS011;4799;50.996;4.754;2022-12-31T18:24:46;4.10;;;2.10;;
8861;SDS011;4799;50.996;4.754;2022-12-31T18:27:15;5.77;;;2.27;;
8861;SDS011;4799;50.996;4.754;2022-12-31T18:29:42;5.40;;;2.47;;
8861;SDS011;4799;50.996;4.754;2022-12-31T18:32:22;8.13;;;2.50;;
8861;SDS011;4799;50.996;4.754;2022-12-31T18:34:49;5.80;;;2.10;;
8861;SDS011;4799;50.996;4.754;2022-12-31T18:37:15;4.97;;;2.33;;
8861;SDS011;4799;50.996;4.754;2022-12-31T18:39:42;6.97;;;2.40;;
8861;SDS011;4799;50.996;4.754;2022-12-31T18:42:11;7.40;;;2.33;;
8861;SDS011;4799;50.996;4.754;2022-12-31T18:44:42;5.40;;;2.60;;
8861;SDS011;4799;50.996;4.754;2022-12-31T18:47:12;8.77;;;2.50;;
8861;SDS011;4799;50.996;4.754;2022-12-31T18:49:39;4.17;;;2.10;;
8861;SDS011;4799;50.996;4.754;2022-12-31T18:52:10;7.90;;;2.70;;
8861;SDS011;4799;50.996;4.754;2022-12-31T18:54:37;6.53;;;2.50;;
8861;SDS011;4799;50.996;4.754;2022-12-31T18:57:03;5.50;;;2.30;;
8861;SDS011;4799;50.996;4.754;2022-12-31T18:59:28;5.20;;;2.30;;
8861;SDS011;4799;50.996;4.754;2022-12-31T19:01:54;4.97;;;2.20;;
8861;SDS011;4799;50.996;4.754;2022-12-31T19:04:20;7.63;;;2.60;;
8861;SDS011;4799;50.996;4.754;2022-12-31T19:06:47;6.77;;;2.60;;
8861;SDS011;4799;50.996;4.754;2022-12-31T19:09:13;5.50;;;2.40;;
8861;SDS011;4799;50.996;4.754;2022-12-31T19:11:40;9.97;;;2.70;;
8861;SDS011;4799;50.996;4.754;2022-12-31T19:14:19;5.37;;;2.30;;
8861;SDS011;4799;50.996;4.754;2022-12-31T19:16:48;6.83;;;2.83;;
8861;SDS011;4799;50.996;4.754;2022-12-31T19:19:16;6.77;;;2.50;;
8861;SDS011;4799;50.996;4.754;2022-12-31T19:21:42;6.30;;;2.37;;
8861;SDS011;4799;50.996;4.754;2022-12-31T19:24:12;6.83;;;2.90;;
8861;SDS011;4799;50.996;4.754;2022-12-31T19:26:41;6.07;;;2.63;;
8861;SDS011;4799;50.996;4.754;2022-12-31T19:29:13;6.93;;;2.40;;
8861;SDS011;4799;50.996;4.754;2022-12-31T19:31:41;9.57;;;2.50;;
8861;SDS011;4799;50.996;4.754;2022-12-31T19:34:07;10.30;;;2.73;;
8861;SDS011;4799;50.996;4.754;2022-12-31T19:36:33;7.70;;;2.70;;
8861;SDS011;4799;50.996;4.754;2022-12-31T19:38:59;9.17;;;2.77;;
8861;SDS011;4799;50.996;4.754;2022-12-31T19:41:25;5.80;;;2.33;;
8861;SDS011;4799;50.996;4.754;2022-12-31T19:43:50;5.93;;;2.50;;
8861;SDS011;4799;50.996;4.754;2022-12-31T19:46:17;6.80;;;2.80;;
8861;SDS011;4799;50.996;4.754;2022-12-31T19:48:43;6.77;;;2.47;;
8861;SDS011;4799;50.996;4.754;2022-12-31T19:51:10;7.37;;;2.70;;
8861;SDS011;4799;50.996;4.754;2022-12-31T19:53:46;6.90;;;2.80;;
8861;SDS011;4799;50.996;4.754;2022-12-31T19:56:14;7.83;;;2.67;;
8861;SDS011;4799;50.996;4.754;2022-12-31T19:58:42;8.50;;;2.80;;
8861;SDS011;4799;50.996;4.754;2022-12-31T20:01:11;6.00;;;2.60;;
8861;SDS011;4799;50.996;4.754;2022-12-31T20:03:50;6.87;;;2.73;;
8861;SDS011;4799;50.996;4.754;2022-12-31T20:06:16;3.97;;;2.57;;
8861;SDS011;4799;50.996;4.754;2022-12-31T20:08:43;6.30;;;2.50;;
8861;SDS011;4799;50.996;4.754;2022-12-31T20:11:16;8.03;;;2.67;;
8861;SDS011;4799;50.996;4.754;2022-12-31T20:13:44;6.53;;;2.60;;
8861;SDS011;4799;50.996;4.754;2022-12-31T20:16:12;7.47;;;2.67;;
8861;SDS011;4799;50.996;4.754;2022-12-31T20:18:41;9.80;;;3.00;;
8861;SDS011;4799;50.996;4.754;2022-12-31T20:21:08;5.50;;;2.63;;
8861;SDS011;4799;50.996;4.754;2022-12-31T20:23:35;7.43;;;2.90;;
8861;SDS011;4799;50.996;4.754;2022-12-31T20:26:01;9.13;;;3.10;;
8861;SDS011;4799;50.996;4.754;2022-12-31T20:28:27;6.77;;;2.93;;
8861;SDS011;4799;50.996;4.754;2022-12-31T20:30:53;7.00;;;2.47;;